createdAt,value
2023-03-31T00:00:12.025Z,13.77
2023-03-31T00:02:41.743Z,14.27
2023-03-31T00:05:18.430Z,13.10
2023-03-31T00:07:46.347Z,12.68
2023-03-31T00:10:18.367Z,11.30
2023-03-31T00:12:46.783Z,11.63
2023-03-31T00:15:14.252Z,11.98
2023-03-31T00:17:41.446Z,11.10
2023-03-31T00:20:15.151Z,10.30
2023-03-31T00:22:47.653Z,10.65
2023-03-31T00:25:16.710Z,10.95
2023-03-31T00:27:45.161Z,11.15
2023-03-31T00:30:15.918Z,10.82
2023-03-31T00:32:44.200Z,11.00
2023-03-31T00:35:11.593Z,11.88
2023-03-31T00:37:39.157Z,11.00
2023-03-31T00:40:09.480Z,11.25
2023-03-31T00:42:46.697Z,11.65
2023-03-31T00:45:17.090Z,11.25
2023-03-31T00:47:48.748Z,10.68
2023-03-31T00:50:23.638Z,11.98
2023-03-31T00:52:58.189Z,10.77
2023-03-31T00:55:34.664Z,11.02
2023-03-31T00:58:05.029Z,10.50
2023-03-31T01:00:35.583Z,11.57
2023-03-31T01:03:09.933Z,10.68
2023-03-31T01:05:47.687Z,10.48
2023-03-31T01:08:18.748Z,9.23
2023-03-31T01:10:52.927Z,9.73
2023-03-31T01:13:21.858Z,8.63
2023-03-31T01:15:49.240Z,9.25
2023-03-31T01:18:24.274Z,9.05
2023-03-31T01:21:10.067Z,11.73
2023-03-31T01:24:06.421Z,10.80
2023-03-31T01:27:04.690Z,10.10
2023-03-31T01:29:53.548Z,11.20
2023-03-31T01:33:00.498Z,10.95
2023-03-31T01:36:09.286Z,10.77
2023-03-31T01:38:59.331Z,10.65
2023-03-31T01:41:41.644Z,11.60
2023-03-31T01:44:33.822Z,12.02
2023-03-31T01:47:29.392Z,10.02
2023-03-31T01:50:02.377Z,10.65
2023-03-31T01:52:56.415Z,10.50
2023-03-31T01:55:34.564Z,9.95
2023-03-31T01:58:09.770Z,11.35
2023-03-31T02:01:03.982Z,10.70
2023-03-31T02:06:31.559Z,9.15
2023-03-31T02:09:09.471Z,12.15
2023-03-31T02:11:42.515Z,11.90
2023-03-31T02:14:39.882Z,11.50
2023-03-31T02:17:18.730Z,12.13
2023-03-31T02:19:53.833Z,10.63
2023-03-31T02:22:36.236Z,10.68
2023-03-31T02:25:14.185Z,10.50
2023-03-31T02:27:44.870Z,9.70
2023-03-31T02:30:23.389Z,10.73
2023-03-31T02:32:56.720Z,11.07
2023-03-31T02:35:37.282Z,10.88
2023-03-31T02:38:14.983Z,9.95
2023-03-31T02:40:47.456Z,10.63
2023-03-31T02:43:18.180Z,10.95
2023-03-31T02:45:52.829Z,11.10
2023-03-31T02:48:31.775Z,10.68
2023-03-31T02:51:30.517Z,11.27
2023-03-31T02:54:31.155Z,10.07
2023-03-31T02:57:22.833Z,11.68
2023-03-31T03:00:25.202Z,11.25
2023-03-31T03:03:24.865Z,11.77
2023-03-31T03:06:30.538Z,12.25
2023-03-31T03:09:22.838Z,13.50
2023-03-31T03:12:05.990Z,12.73
2023-03-31T03:14:52.987Z,13.40
2023-03-31T03:17:26.972Z,12.50
2023-03-31T03:19:57.126Z,13.25
2023-03-31T03:22:27.366Z,13.05
2023-03-31T03:24:55.690Z,14.13
2023-03-31T03:27:23.211Z,14.77
2023-03-31T03:29:50.558Z,15.15
2023-03-31T03:32:20.810Z,15.48
2023-03-31T03:34:48.125Z,12.75
2023-03-31T03:37:15.468Z,13.10
2023-03-31T03:39:43.091Z,12.70
2023-03-31T03:42:10.166Z,12.75
2023-03-31T03:44:37.254Z,12.98
2023-03-31T03:47:07.047Z,14.63
2023-03-31T03:49:34.514Z,14.10
2023-03-31T03:52:01.749Z,13.38
2023-03-31T03:54:29.116Z,12.95
2023-03-31T03:56:57.054Z,15.10
2023-03-31T04:02:28.995Z,14.13
2023-03-31T04:04:59.672Z,14.30
2023-03-31T04:07:52.341Z,13.43
2023-03-31T04:10:34.945Z,13.57
2023-03-31T04:13:10.552Z,13.88
2023-03-31T04:15:48.218Z,15.07
2023-03-31T04:18:26.001Z,13.70
2023-03-31T04:21:04.337Z,13.52
2023-03-31T04:24:08.200Z,15.70
2023-03-31T04:26:48.114Z,13.40
2023-03-31T04:29:22.962Z,14.57
2023-03-31T04:31:54.738Z,13.75
2023-03-31T04:37:11.106Z,14.30
2023-03-31T04:39:46.949Z,14.65
2023-03-31T04:42:19.237Z,14.63
2023-03-31T04:44:53.327Z,13.32
2023-03-31T04:47:38.239Z,14.20
2023-03-31T04:50:14.508Z,15.07
2023-03-31T04:53:01.606Z,14.95
2023-03-31T04:55:35.234Z,15.23
2023-03-31T04:58:14.774Z,15.93
2023-03-31T05:00:45.411Z,15.48
2023-03-31T05:03:14.815Z,15.15
2023-03-31T05:05:45.218Z,13.82
2023-03-31T05:08:22.549Z,15.75
2023-03-31T05:10:52.488Z,14.57
2023-03-31T05:13:27.195Z,14.60
2023-03-31T05:15:56.990Z,13.55
2023-03-31T05:18:29.617Z,15.10
2023-03-31T05:21:11.610Z,14.10
2023-03-31T05:23:52.566Z,15.85
2023-03-31T05:26:32.874Z,14.23
2023-03-31T05:29:05.260Z,14.50
2023-03-31T05:31:36.243Z,13.05
2023-03-31T05:34:20.733Z,12.27
2023-03-31T05:36:54.158Z,13.18
2023-03-31T05:39:23.758Z,12.93
2023-03-31T05:42:10.336Z,13.82
2023-03-31T05:44:38.860Z,15.07
2023-03-31T05:47:17.979Z,13.50
2023-03-31T05:49:50.719Z,13.60
2023-03-31T05:52:21.038Z,13.15
2023-03-31T05:54:49.803Z,14.65
2023-03-31T05:57:28.624Z,14.48
2023-03-31T06:00:02.089Z,16.45
2023-03-31T06:02:50.509Z,15.13
2023-03-31T06:05:31.552Z,17.30
2023-03-31T06:08:02.349Z,15.82
2023-03-31T06:10:34.905Z,14.20
2023-03-31T06:13:14.155Z,15.43
2023-03-31T06:15:52.881Z,14.52
2023-03-31T06:18:31.640Z,14.27
2023-03-31T06:21:13.793Z,12.98
2023-03-31T06:23:48.663Z,12.60
2023-03-31T06:26:30.009Z,12.13
2023-03-31T06:29:03.106Z,13.10
2023-03-31T06:31:30.926Z,11.90
2023-03-31T06:34:00.350Z,11.95
2023-03-31T06:36:33.241Z,12.60
2023-03-31T06:41:52.704Z,12.57
2023-03-31T06:44:31.920Z,14.82
2023-03-31T06:47:04.481Z,14.05
2023-03-31T06:49:37.026Z,12.93
2023-03-31T06:52:07.145Z,13.95
2023-03-31T06:54:40.781Z,14.90
2023-03-31T06:59:48.149Z,14.50
2023-03-31T07:02:20.820Z,13.05
2023-03-31T07:04:52.040Z,14.17
2023-03-31T07:07:21.589Z,13.40
2023-03-31T07:10:01.226Z,12.00
2023-03-31T07:12:36.358Z,12.20
2023-03-31T07:15:24.721Z,11.50
2023-03-31T07:18:05.657Z,11.82
2023-03-31T07:20:49.529Z,10.10
2023-03-31T07:23:22.824Z,5.32
2023-03-31T07:26:04.343Z,3.70
2023-03-31T07:28:40.493Z,3.13
2023-03-31T07:31:16.816Z,3.00
2023-03-31T07:33:49.285Z,2.55
2023-03-31T07:36:22.200Z,2.08
2023-03-31T07:38:52.826Z,2.30
2023-03-31T07:41:27.218Z,2.83
2023-03-31T07:44:02.089Z,2.28
2023-03-31T07:46:35.057Z,2.80
2023-03-31T07:49:10.736Z,4.18
2023-03-31T07:51:46.254Z,1.80
2023-03-31T07:54:29.612Z,3.00
2023-03-31T07:57:09.386Z,1.98
2023-03-31T07:59:40.919Z,2.25
2023-03-31T08:02:18.879Z,2.15
2023-03-31T08:04:51.029Z,2.13
2023-03-31T08:10:19.524Z,2.65
2023-03-31T08:12:52.274Z,1.75
2023-03-31T08:15:23.003Z,1.55
2023-03-31T08:18:01.134Z,2.00
2023-03-31T08:20:42.122Z,2.50
2023-03-31T08:23:18.727Z,2.13
2023-03-31T08:25:52.752Z,1.92
2023-03-31T08:28:32.538Z,2.35
2023-03-31T08:31:11.002Z,1.75
2023-03-31T08:33:55.210Z,2.42
2023-03-31T08:36:25.174Z,2.17
2023-03-31T08:38:55.028Z,2.10
2023-03-31T08:41:49.006Z,2.55
2023-03-31T08:44:59.720Z,1.95
2023-03-31T08:47:38.458Z,2.13
2023-03-31T08:50:30.671Z,2.05
2023-03-31T08:53:20.390Z,3.05
2023-03-31T08:58:58.351Z,2.17
2023-03-31T09:01:56.572Z,1.65
2023-03-31T09:04:35.893Z,2.63
2023-03-31T09:07:43.810Z,2.20
2023-03-31T09:10:57.567Z,1.83
2023-03-31T09:13:52.369Z,1.70
2023-03-31T09:16:35.198Z,1.42
2023-03-31T09:19:11.781Z,1.70
2023-03-31T09:21:46.385Z,1.85
2023-03-31T09:24:46.492Z,2.00
2023-03-31T09:27:18.065Z,2.78
2023-03-31T09:30:39.852Z,1.77
2023-03-31T09:33:30.960Z,1.90
2023-03-31T09:36:17.420Z,2.00
2023-03-31T09:38:54.780Z,1.85
2023-03-31T09:41:34.384Z,1.40
2023-03-31T09:44:03.896Z,1.92
2023-03-31T09:46:47.871Z,1.83
2023-03-31T09:49:32.079Z,1.70
2023-03-31T09:52:21.509Z,1.33
2023-03-31T09:55:06.627Z,1.65
2023-03-31T09:57:46.585Z,2.10
2023-03-31T10:00:24.888Z,1.33
2023-03-31T10:03:08.851Z,1.42
2023-03-31T10:06:00.358Z,1.88
2023-03-31T10:08:51.251Z,1.25
2023-03-31T10:11:25.049Z,1.88
2023-03-31T10:14:14.476Z,2.00
2023-03-31T10:17:02.641Z,1.35
2023-03-31T10:19:47.267Z,1.55
2023-03-31T10:22:33.854Z,1.45
2023-03-31T10:25:29.240Z,2.17
2023-03-31T10:28:05.072Z,1.55
2023-03-31T10:30:42.106Z,1.38
2023-03-31T10:33:27.348Z,1.58
2023-03-31T10:36:10.222Z,1.40
2023-03-31T10:38:50.862Z,1.20
2023-03-31T10:41:27.008Z,0.93
2023-03-31T10:44:04.928Z,1.90
2023-03-31T10:46:58.605Z,2.40
2023-03-31T10:52:06.651Z,3.80
2023-03-31T10:54:54.274Z,4.53
2023-03-31T10:57:55.326Z,5.20
2023-03-31T11:01:03.173Z,5.72
2023-03-31T11:04:10.194Z,5.05
2023-03-31T11:06:49.418Z,5.10
2023-03-31T11:10:06.504Z,5.15
2023-03-31T11:12:52.134Z,5.97
2023-03-31T11:15:34.045Z,6.60
2023-03-31T11:18:50.048Z,5.40
2023-03-31T11:21:56.134Z,5.50
2023-03-31T11:24:56.879Z,6.00
2023-03-31T11:28:08.765Z,5.18
2023-03-31T11:30:46.159Z,5.60
2023-03-31T11:33:56.481Z,4.65
2023-03-31T11:36:46.919Z,4.88
2023-03-31T11:39:57.049Z,5.35
2023-03-31T11:42:36.830Z,5.57
2023-03-31T11:45:23.906Z,6.32
2023-03-31T11:47:59.542Z,5.32
2023-03-31T11:50:44.253Z,5.75
2023-03-31T11:53:34.005Z,5.15
2023-03-31T11:56:12.835Z,4.47
2023-03-31T11:58:56.442Z,5.30
2023-03-31T12:02:23.991Z,4.90
2023-03-31T12:05:05.498Z,5.32
2023-03-31T12:10:38.376Z,5.25
2023-03-31T12:13:24.577Z,5.05
2023-03-31T12:16:14.633Z,4.97
2023-03-31T12:19:06.543Z,4.95
2023-03-31T12:21:45.925Z,4.47
2023-03-31T12:24:24.905Z,4.70
2023-03-31T12:27:20.235Z,5.70
2023-03-31T12:30:03.386Z,4.68
2023-03-31T12:32:39.846Z,4.43
2023-03-31T12:35:49.305Z,6.07
2023-03-31T12:38:45.188Z,5.18
2023-03-31T12:41:41.672Z,5.50
2023-03-31T12:44:34.447Z,5.47
2023-03-31T12:47:44.988Z,5.40
2023-03-31T12:50:37.322Z,5.70
2023-03-31T12:53:22.905Z,4.72
2023-03-31T12:56:00.816Z,5.47
2023-03-31T13:01:12.305Z,5.70
2023-03-31T13:04:20.808Z,4.72
2023-03-31T13:07:00.038Z,5.75
2023-03-31T13:09:47.546Z,4.82
2023-03-31T13:12:28.136Z,5.28
2023-03-31T13:15:07.123Z,4.75
2023-03-31T13:17:38.429Z,5.90
2023-03-31T13:20:35.963Z,5.32
2023-03-31T13:23:30.317Z,4.57
2023-03-31T13:26:35.623Z,6.57
2023-03-31T13:29:27.572Z,5.70
2023-03-31T13:32:40.475Z,5.65
2023-03-31T13:35:35.135Z,4.90
2023-03-31T13:38:11.024Z,5.25
2023-03-31T13:41:16.621Z,5.28
2023-03-31T13:44:26.055Z,4.60
2023-03-31T13:47:38.511Z,5.40
2023-03-31T13:50:39.240Z,4.88
2023-03-31T13:53:41.165Z,5.82
2023-03-31T14:00:24.487Z,5.88
2023-03-31T14:03:33.620Z,5.75
2023-03-31T14:06:26.670Z,4.90
2023-03-31T14:09:08.358Z,5.90
2023-03-31T14:11:54.914Z,5.88
2023-03-31T14:14:41.136Z,4.97
2023-03-31T14:17:22.657Z,4.95
2023-03-31T14:20:12.468Z,4.90
2023-03-31T14:23:09.662Z,5.35
2023-03-31T14:26:25.274Z,5.50
2023-03-31T14:29:38.404Z,4.32
2023-03-31T14:32:38.243Z,4.68
2023-03-31T14:35:46.085Z,3.97
2023-03-31T14:38:23.835Z,4.50
2023-03-31T14:41:06.448Z,5.20
2023-03-31T14:43:51.287Z,4.60
2023-03-31T14:46:29.924Z,5.10
2023-03-31T14:48:59.308Z,5.13
2023-03-31T14:51:31.889Z,4.55
2023-03-31T14:54:15.650Z,4.35
2023-03-31T14:59:34.256Z,4.70
2023-03-31T15:02:08.826Z,5.03
2023-03-31T15:04:52.359Z,4.63
2023-03-31T15:07:23.242Z,4.78
2023-03-31T15:09:53.785Z,5.38
2023-03-31T15:12:27.393Z,5.18
2023-03-31T15:15:04.093Z,4.55
2023-03-31T15:17:43.296Z,4.35
2023-03-31T15:20:57.944Z,4.07
2023-03-31T15:23:38.129Z,4.20
2023-03-31T15:26:12.555Z,4.17
2023-03-31T15:28:52.717Z,5.13
2023-03-31T15:31:27.439Z,5.45
2023-03-31T15:34:02.838Z,4.47
2023-03-31T15:36:37.610Z,4.63
2023-03-31T15:39:09.626Z,4.82
2023-03-31T15:41:54.945Z,5.00
2023-03-31T15:44:44.685Z,5.10
2023-03-31T15:47:29.911Z,4.47
2023-03-31T15:50:22.323Z,4.90
2023-03-31T15:52:58.094Z,4.80
2023-03-31T15:55:44.438Z,4.80
2023-03-31T15:58:20.975Z,4.03
2023-03-31T16:01:05.672Z,3.85
2023-03-31T16:03:42.455Z,4.18
2023-03-31T16:06:40.602Z,3.85
2023-03-31T16:09:58.780Z,4.75
2023-03-31T16:12:39.679Z,4.03
2023-03-31T16:15:14.345Z,4.93
2023-03-31T16:18:16.959Z,4.50
2023-03-31T16:20:55.744Z,4.30
2023-03-31T16:23:41.301Z,4.10
2023-03-31T16:26:15.682Z,3.97
2023-03-31T16:28:53.120Z,5.10
2023-03-31T16:32:21.165Z,4.28
2023-03-31T16:35:11.440Z,4.40
2023-03-31T16:37:48.621Z,4.55
2023-03-31T16:40:21.984Z,4.05
2023-03-31T16:45:41.738Z,4.60
2023-03-31T16:48:16.642Z,4.93
2023-03-31T16:50:58.043Z,5.50
2023-03-31T16:53:40.537Z,4.97
2023-03-31T16:56:12.146Z,4.45
2023-03-31T16:58:41.860Z,4.72
2023-03-31T17:01:18.289Z,4.40
2023-03-31T17:03:50.782Z,4.72
2023-03-31T17:06:24.173Z,4.43
2023-03-31T17:08:54.486Z,4.93
2023-03-31T17:11:24.139Z,6.00
2023-03-31T17:13:55.875Z,5.25
2023-03-31T17:16:32.866Z,5.30
2023-03-31T17:19:12.344Z,6.10
2023-03-31T17:22:07.797Z,6.30
2023-03-31T17:24:38.086Z,5.80
2023-03-31T17:27:08.560Z,6.10
2023-03-31T17:29:38.606Z,6.43
2023-03-31T17:32:14.476Z,5.65
2023-03-31T17:35:05.927Z,5.20
2023-03-31T17:37:39.231Z,5.32
2023-03-31T17:40:10.123Z,5.30
2023-03-31T17:42:47.542Z,5.35
2023-03-31T17:45:18.387Z,5.35
2023-03-31T17:47:47.877Z,5.75
2023-03-31T17:50:18.237Z,5.47
2023-03-31T17:52:52.152Z,4.75
2023-03-31T17:55:28.134Z,5.50
2023-03-31T17:57:58.110Z,5.63
2023-03-31T18:00:31.281Z,5.20
2023-03-31T18:03:03.988Z,5.15
2023-03-31T18:05:43.602Z,6.33
2023-03-31T18:08:13.983Z,5.68
2023-03-31T18:10:43.859Z,5.95
2023-03-31T18:13:18.843Z,6.45
2023-03-31T18:18:42.826Z,6.20
2023-03-31T18:21:16.160Z,5.63
2023-03-31T18:23:50.602Z,5.45
2023-03-31T18:26:27.648Z,4.88
2023-03-31T18:29:04.250Z,7.57
2023-03-31T18:31:56.534Z,5.80
2023-03-31T18:34:26.943Z,6.30
2023-03-31T18:37:12.178Z,6.68
2023-03-31T18:39:43.387Z,6.05
2023-03-31T18:42:18.699Z,5.53
2023-03-31T18:44:55.954Z,6.22
2023-03-31T18:47:30.648Z,6.53
2023-03-31T18:50:23.989Z,5.63
2023-03-31T18:52:54.799Z,5.63
2023-03-31T18:55:29.460Z,5.57
2023-03-31T18:58:11.320Z,5.88
2023-03-31T19:00:49.274Z,5.45
2023-03-31T19:03:20.752Z,5.40
2023-03-31T19:06:03.069Z,5.13
2023-03-31T19:08:38.834Z,6.57
2023-03-31T19:11:17.396Z,5.38
2023-03-31T19:13:50.852Z,5.85
2023-03-31T19:16:30.216Z,6.43
2023-03-31T19:19:01.140Z,5.18
2023-03-31T19:21:47.518Z,5.40
2023-03-31T19:24:37.911Z,5.90
2023-03-31T19:27:10.210Z,7.57
2023-03-31T19:29:41.438Z,5.18
2023-03-31T19:32:20.642Z,5.75
2023-03-31T19:34:56.905Z,5.75
2023-03-31T19:37:35.261Z,5.35
2023-03-31T19:40:12.606Z,6.27
2023-03-31T19:42:44.932Z,5.82
2023-03-31T19:45:25.635Z,5.57
2023-03-31T19:51:02.099Z,5.80
2023-03-31T19:53:30.679Z,5.88
2023-03-31T19:56:07.615Z,5.88
2023-03-31T19:58:36.717Z,5.88
2023-03-31T20:01:09.389Z,6.35
2023-03-31T20:06:28.770Z,6.20
2023-03-31T20:09:06.578Z,6.15
2023-03-31T20:11:42.551Z,6.00
2023-03-31T20:14:13.297Z,6.32
2023-03-31T20:16:44.727Z,6.30
2023-03-31T20:19:17.119Z,5.97
2023-03-31T20:21:54.429Z,6.20
2023-03-31T20:24:21.990Z,5.93
2023-03-31T20:26:52.761Z,6.13
2023-03-31T20:29:34.079Z,6.00
2023-03-31T20:32:08.752Z,6.03
2023-03-31T20:34:53.541Z,7.35
2023-03-31T20:37:30.186Z,6.05
2023-03-31T20:39:59.125Z,6.32
2023-03-31T20:42:31.701Z,6.15
2023-03-31T20:45:01.275Z,5.93
2023-03-31T20:47:35.781Z,5.93
2023-03-31T20:50:08.403Z,6.65
2023-03-31T20:52:43.329Z,5.93
2023-03-31T20:55:18.324Z,5.97
2023-03-31T20:58:03.626Z,6.10
2023-03-31T21:00:43.108Z,5.65
2023-03-31T21:03:13.015Z,5.85
2023-03-31T21:05:56.254Z,5.95
2023-03-31T21:08:30.721Z,5.55
2023-03-31T21:11:01.834Z,6.43
2023-03-31T21:13:32.524Z,6.53
2023-03-31T21:16:05.436Z,6.82
2023-03-31T21:18:38.805Z,5.93
2023-03-31T21:21:17.609Z,5.80
2023-03-31T21:23:57.277Z,6.35
2023-03-31T21:26:34.574Z,6.05
2023-03-31T21:29:08.298Z,5.95
2023-03-31T21:31:41.803Z,6.05
2023-03-31T21:36:47.529Z,6.65
2023-03-31T21:39:27.202Z,6.53
2023-03-31T21:41:56.757Z,5.72
2023-03-31T21:44:26.589Z,5.75
2023-03-31T21:47:02.273Z,5.80
2023-03-31T21:49:32.781Z,5.38
2023-03-31T21:52:08.145Z,5.90
2023-03-31T21:54:35.341Z,6.75
2023-03-31T21:57:11.725Z,7.20
2023-03-31T21:59:41.319Z,7.15
2023-03-31T22:02:08.650Z,6.40
2023-03-31T22:04:44.237Z,6.55
2023-03-31T22:07:17.537Z,6.65
2023-03-31T22:09:54.181Z,5.30
2023-03-31T22:12:25.876Z,6.50
2023-03-31T22:15:01.066Z,5.88
2023-03-31T22:17:34.157Z,6.53
2023-03-31T22:20:07.578Z,5.78
2023-03-31T22:22:40.546Z,6.32
2023-03-31T22:25:13.485Z,6.85
2023-03-31T22:27:45.773Z,6.70
2023-03-31T22:30:14.362Z,6.82
2023-03-31T22:32:47.130Z,6.60
2023-03-31T22:35:18.900Z,6.63
2023-03-31T22:37:53.600Z,6.55
2023-03-31T22:40:25.290Z,7.22
2023-03-31T22:43:01.093Z,7.22
2023-03-31T22:48:20.201Z,6.57
2023-03-31T22:50:50.610Z,6.88
2023-03-31T22:53:30.436Z,6.75
2023-03-31T22:56:11.992Z,7.25
2023-03-31T22:58:47.054Z,6.70
2023-03-31T23:01:17.181Z,6.50
2023-03-31T23:03:50.178Z,6.90
2023-03-31T23:06:17.732Z,7.47
2023-03-31T23:08:49.070Z,6.18
2023-03-31T23:11:18.965Z,6.85
2023-03-31T23:13:51.144Z,8.32
2023-03-31T23:16:21.530Z,6.80
2023-03-31T23:18:55.922Z,8.00
2023-03-31T23:21:27.988Z,7.55
2023-03-31T23:24:03.457Z,6.85
2023-03-31T23:26:37.220Z,7.75
2023-03-31T23:29:04.939Z,7.90
2023-03-31T23:31:37.104Z,8.63
2023-03-31T23:34:13.298Z,7.03
2023-03-31T23:36:48.758Z,9.35
2023-03-31T23:39:19.083Z,7.25
2023-03-31T23:41:55.715Z,7.00
2023-03-31T23:44:30.206Z,8.02
2023-03-31T23:47:03.973Z,7.50
2023-03-31T23:49:38.856Z,7.65
2023-03-31T23:52:12.173Z,7.20
2023-03-31T23:54:44.205Z,7.20
2023-03-31T23:57:11.670Z,7.35
